sensor_id;sensor_type;location;lat;lon;timestamp;temperature;humidity
19279;DHT22;9773;47.062;15.446;2023-07-22T00:00:51;17.40;99.90
19279;DHT22;9773;47.062;15.446;2023-07-22T00:03:17;17.50;99.90
19279;DHT22;9773;47.062;15.446;2023-07-22T00:05:43;17.50;99.90
19279;DHT22;9773;47.062;15.446;2023-07-22T00:08:09;17.60;99.90
19279;DHT22;9773;47.062;15.446;2023-07-22T00:10:35;17.50;99.90
19279;DHT22;9773;47.062;15.446;2023-07-22T00:13:02;17.50;99.90
19279;DHT22;9773;47.062;15.446;2023-07-22T00:15:27;17.40;99.90
19279;DHT22;9773;47.062;15.446;2023-07-22T00:17:53;17.40;99.90
19279;DHT22;9773;47.062;15.446;2023-07-22T00:20:19;17.30;99.90
19279;DHT22;9773;47.062;15.446;2023-07-22T00:22:45;17.40;99.90
19279;DHT22;9773;47.062;15.446;2023-07-22T00:25:14;17.50;99.90
19279;DHT22;9773;47.062;15.446;2023-07-22T00:27:41;17.70;99.90
19279;DHT22;9773;47.062;15.446;2023-07-22T00:30:07;17.50;99.90
19279;DHT22;9773;47.062;15.446;2023-07-22T00:32:34;17.40;99.90
19279;DHT22;9773;47.062;15.446;2023-07-22T00:35:03;17.40;99.90
19279;DHT22;9773;47.062;15.446;2023-07-22T00:37:30;17.30;99.90
19279;DHT22;9773;47.062;15.446;2023-07-22T00:39:55;17.30;99.90
19279;DHT22;9773;47.062;15.446;2023-07-22T00:42:21;17.20;99.90
19279;DHT22;9773;47.062;15.446;2023-07-22T00:44:49;17.20;99.90
19279;DHT22;9773;47.062;15.446;2023-07-22T00:47:15;17.30;99.90
19279;DHT22;9773;47.062;15.446;2023-07-22T00:49:43;17.30;99.90
19279;DHT22;9773;47.062;15.446;2023-07-22T00:52:13;17.30;99.90
19279;DHT22;9773;47.062;15.446;2023-07-22T00:54:39;17.30;99.90
19279;DHT22;9773;47.062;15.446;2023-07-22T00:57:06;17.30;99.90
19279;DHT22;9773;47.062;15.446;2023-07-22T00:59:33;17.30;99.90
19279;DHT22;9773;47.062;15.446;2023-07-22T01:01:58;17.30;99.90
19279;DHT22;9773;47.062;15.446;2023-07-22T01:04:25;17.30;99.90
19279;DHT22;9773;47.062;15.446;2023-07-22T01:06:51;17.40;99.90
19279;DHT22;9773;47.062;15.446;2023-07-22T01:09:21;17.40;99.90
19279;DHT22;9773;47.062;15.446;2023-07-22T01:11:47;17.40;99.90
19279;DHT22;9773;47.062;15.446;2023-07-22T01:14:13;17.30;99.90
19279;DHT22;9773;47.062;15.446;2023-07-22T01:16:40;17.30;99.90
19279;DHT22;9773;47.062;15.446;2023-07-22T01:19:09;17.20;99.90
19279;DHT22;9773;47.062;15.446;2023-07-22T01:21:36;17.20;99.90
19279;DHT22;9773;47.062;15.446;2023-07-22T01:24:04;17.30;99.90
19279;DHT22;9773;47.062;15.446;2023-07-22T01:26:30;17.30;99.90
19279;DHT22;9773;47.062;15.446;2023-07-22T01:29:05;17.30;99.90
19279;DHT22;9773;47.062;15.446;2023-07-22T01:31:34;17.10;99.90
19279;DHT22;9773;47.062;15.446;2023-07-22T01:34:01;17.10;99.90
19279;DHT22;9773;47.062;15.446;2023-07-22T01:36:26;17.10;99.90
19279;DHT22;9773;47.062;15.446;2023-07-22T01:38:52;17.10;99.90
19279;DHT22;9773;47.062;15.446;2023-07-22T01:41:18;17.10;99.90
19279;DHT22;9773;47.062;15.446;2023-07-22T01:43:44;17.10;99.90
19279;DHT22;9773;47.062;15.446;2023-07-22T01:46:09;17.10;99.90
19279;DHT22;9773;47.062;15.446;2023-07-22T01:48:35;17.10;99.90
19279;DHT22;9773;47.062;15.446;2023-07-22T01:51:01;17.10;99.90
19279;DHT22;9773;47.062;15.446;2023-07-22T01:53:26;17.00;99.90
19279;DHT22;9773;47.062;15.446;2023-07-22T01:55:52;17.10;99.90
19279;DHT22;9773;47.062;15.446;2023-07-22T01:58:18;17.00;99.90
19279;DHT22;9773;47.062;15.446;2023-07-22T02:00:50;16.90;99.90
19279;DHT22;9773;47.062;15.446;2023-07-22T02:03:16;16.90;99.90
19279;DHT22;9773;47.062;15.446;2023-07-22T02:05:42;16.90;99.90
19279;DHT22;9773;47.062;15.446;2023-07-22T02:08:09;16.90;99.90
19279;DHT22;9773;47.062;15.446;2023-07-22T02:10:35;16.90;99.90
19279;DHT22;9773;47.062;15.446;2023-07-22T02:13:01;16.80;99.90
19279;DHT22;9773;47.062;15.446;2023-07-22T02:15:31;16.80;99.90
19279;DHT22;9773;47.062;15.446;2023-07-22T02:17:59;16.90;99.90
19279;DHT22;9773;47.062;15.446;2023-07-22T02:20:25;16.90;99.90
19279;DHT22;9773;47.062;15.446;2023-07-22T02:22:54;16.90;99.90
19279;DHT22;9773;47.062;15.446;2023-07-22T02:25:20;16.80;99.90
19279;DHT22;9773;47.062;15.446;2023-07-22T02:27:46;16.90;99.90
19279;DHT22;9773;47.062;15.446;2023-07-22T02:30:13;16.90;99.90
19279;DHT22;9773;47.062;15.446;2023-07-22T02:32:40;16.90;99.90
19279;DHT22;9773;47.062;15.446;2023-07-22T02:35:07;17.00;99.90
19279;DHT22;9773;47.062;15.446;2023-07-22T02:37:36;17.00;99.90
19279;DHT22;9773;47.062;15.446;2023-07-22T02:40:04;17.00;99.90
19279;DHT22;9773;47.062;15.446;2023-07-22T02:42:48;17.00;99.90
19279;DHT22;9773;47.062;15.446;2023-07-22T02:45:14;16.90;99.90
19279;DHT22;9773;47.062;15.446;2023-07-22T02:47:40;16.90;99.90
19279;DHT22;9773;47.062;15.446;2023-07-22T02:50:07;16.90;99.90
19279;DHT22;9773;47.062;15.446;2023-07-22T02:52:34;16.80;99.90
19279;DHT22;9773;47.062;15.446;2023-07-22T02:57:34;16.80;99.90
19279;DHT22;9773;47.062;15.446;2023-07-22T03:00:00;16.80;99.90
19279;DHT22;9773;47.062;15.446;2023-07-22T03:02:26;16.80;99.90
19279;DHT22;9773;47.062;15.446;2023-07-22T03:04:53;16.70;99.90
19279;DHT22;9773;47.062;15.446;2023-07-22T03:07:19;16.70;99.90
19279;DHT22;9773;47.062;15.446;2023-07-22T03:09:47;16.70;99.90
19279;DHT22;9773;47.062;15.446;2023-07-22T03:12:12;16.70;99.90
19279;DHT22;9773;47.062;15.446;2023-07-22T03:14:38;16.80;99.90
19279;DHT22;9773;47.062;15.446;2023-07-22T03:17:05;16.80;99.90
19279;DHT22;9773;47.062;15.446;2023-07-22T03:19:31;16.80;99.90
19279;DHT22;9773;47.062;15.446;2023-07-22T03:21:56;16.90;99.90
19279;DHT22;9773;47.062;15.446;2023-07-22T03:24:23;16.90;99.90
19279;DHT22;9773;47.062;15.446;2023-07-22T03:26:51;17.00;99.90
19279;DHT22;9773;47.062;15.446;2023-07-22T03:29:17;16.90;99.90
19279;DHT22;9773;47.062;15.446;2023-07-22T03:31:43;16.80;99.90
19279;DHT22;9773;47.062;15.446;2023-07-22T03:34:10;16.80;99.90
19279;DHT22;9773;47.062;15.446;2023-07-22T03:36:35;16.80;99.90
19279;DHT22;9773;47.062;15.446;2023-07-22T03:39:01;16.70;99.90
19279;DHT22;9773;47.062;15.446;2023-07-22T03:41:28;16.70;99.90
19279;DHT22;9773;47.062;15.446;2023-07-22T03:43:54;16.70;99.90
19279;DHT22;9773;47.062;15.446;2023-07-22T03:46:20;16.70;99.90
19279;DHT22;9773;47.062;15.446;2023-07-22T03:48:46;16.70;99.90
19279;DHT22;9773;47.062;15.446;2023-07-22T03:51:13;16.60;99.90
19279;DHT22;9773;47.062;15.446;2023-07-22T03:53:39;16.70;99.90
19279;DHT22;9773;47.062;15.446;2023-07-22T03:56:05;16.70;99.90
19279;DHT22;9773;47.062;15.446;2023-07-22T03:58:30;16.70;99.90
19279;DHT22;9773;47.062;15.446;2023-07-22T04:00:57;16.70;99.90
19279;DHT22;9773;47.062;15.446;2023-07-22T04:03:24;16.80;99.90
19279;DHT22;9773;47.062;15.446;2023-07-22T04:05:54;16.80;99.90
19279;DHT22;9773;47.062;15.446;2023-07-22T04:08:21;16.80;99.90
19279;DHT22;9773;47.062;15.446;2023-07-22T04:10:56;16.70;99.90
19279;DHT22;9773;47.062;15.446;2023-07-22T04:13:24;16.80;99.90
19279;DHT22;9773;47.062;15.446;2023-07-22T04:15:51;16.70;99.90
19279;DHT22;9773;47.062;15.446;2023-07-22T04:18:17;16.70;99.90
19279;DHT22;9773;47.062;15.446;2023-07-22T04:20:44;16.60;99.90
19279;DHT22;9773;47.062;15.446;2023-07-22T04:23:10;16.60;99.90
19279;DHT22;9773;47.062;15.446;2023-07-22T04:25:43;16.70;99.90
19279;DHT22;9773;47.062;15.446;2023-07-22T04:28:12;16.70;99.90
19279;DHT22;9773;47.062;15.446;2023-07-22T04:30:57;16.60;99.90
19279;DHT22;9773;47.062;15.446;2023-07-22T04:33:24;16.60;99.90
19279;DHT22;9773;47.062;15.446;2023-07-22T04:35:57;16.60;99.90
19279;DHT22;9773;47.062;15.446;2023-07-22T04:38:23;16.70;99.90
19279;DHT22;9773;47.062;15.446;2023-07-22T04:40:48;16.60;99.90
19279;DHT22;9773;47.062;15.446;2023-07-22T04:43:14;16.60;99.90
19279;DHT22;9773;47.062;15.446;2023-07-22T04:45:44;16.70;99.90
19279;DHT22;9773;47.062;15.446;2023-07-22T04:48:10;16.80;99.90
19279;DHT22;9773;47.062;15.446;2023-07-22T04:50:36;16.80;99.90
19279;DHT22;9773;47.062;15.446;2023-07-22T04:53:06;16.90;99.90
19279;DHT22;9773;47.062;15.446;2023-07-22T04:55:32;17.00;99.90
19279;DHT22;9773;47.062;15.446;2023-07-22T04:57:58;17.10;99.90
19279;DHT22;9773;47.062;15.446;2023-07-22T05:00:24;17.00;99.90
19279;DHT22;9773;47.062;15.446;2023-07-22T05:02:49;17.00;99.90
19279;DHT22;9773;47.062;15.446;2023-07-22T05:05:18;17.00;99.90
19279;DHT22;9773;47.062;15.446;2023-07-22T05:07:44;17.00;99.90
19279;DHT22;9773;47.062;15.446;2023-07-22T05:10:11;17.00;99.90
19279;DHT22;9773;47.062;15.446;2023-07-22T05:12:42;17.10;99.90
19279;DHT22;9773;47.062;15.446;2023-07-22T05:15:09;17.20;99.90
19279;DHT22;9773;47.062;15.446;2023-07-22T05:17:36;17.20;99.90
19279;DHT22;9773;47.062;15.446;2023-07-22T05:20:02;17.30;99.90
19279;DHT22;9773;47.062;15.446;2023-07-22T05:22:29;17.30;99.90
19279;DHT22;9773;47.062;15.446;2023-07-22T05:24:55;17.40;99.90
19279;DHT22;9773;47.062;15.446;2023-07-22T05:27:21;17.40;99.90
19279;DHT22;9773;47.062;15.446;2023-07-22T05:29:47;17.50;99.90
19279;DHT22;9773;47.062;15.446;2023-07-22T05:32:14;17.60;99.90
19279;DHT22;9773;47.062;15.446;2023-07-22T05:34:40;17.60;99.90
19279;DHT22;9773;47.062;15.446;2023-07-22T05:37:06;17.80;99.90
19279;DHT22;9773;47.062;15.446;2023-07-22T05:39:31;17.90;99.90
19279;DHT22;9773;47.062;15.446;2023-07-22T05:41:57;18.00;99.90
19279;DHT22;9773;47.062;15.446;2023-07-22T05:44:23;18.00;99.90
19279;DHT22;9773;47.062;15.446;2023-07-22T05:46:49;17.90;99.90
19279;DHT22;9773;47.062;15.446;2023-07-22T05:49:14;17.80;99.90
19279;DHT22;9773;47.062;15.446;2023-07-22T05:51:40;17.80;99.90
19279;DHT22;9773;47.062;15.446;2023-07-22T05:54:06;17.80;99.90
19279;DHT22;9773;47.062;15.446;2023-07-22T05:56:32;17.90;99.90
19279;DHT22;9773;47.062;15.446;2023-07-22T05:58:57;17.90;99.90
19279;DHT22;9773;47.062;15.446;2023-07-22T06:01:24;17.90;99.90
19279;DHT22;9773;47.062;15.446;2023-07-22T06:03:53;18.00;99.90
19279;DHT22;9773;47.062;15.446;2023-07-22T06:06:20;18.10;99.90
19279;DHT22;9773;47.062;15.446;2023-07-22T06:08:45;18.10;99.90
19279;DHT22;9773;47.062;15.446;2023-07-22T06:11:11;18.10;99.90
19279;DHT22;9773;47.062;15.446;2023-07-22T06:13:37;18.10;99.90
19279;DHT22;9773;47.062;15.446;2023-07-22T06:16:04;18.10;99.90
19279;DHT22;9773;47.062;15.446;2023-07-22T06:18:30;18.20;99.90
19279;DHT22;9773;47.062;15.446;2023-07-22T06:20:55;18.20;99.90
19279;DHT22;9773;47.062;15.446;2023-07-22T06:23:21;18.30;99.90
19279;DHT22;9773;47.062;15.446;2023-07-22T06:25:47;18.40;99.90
19279;DHT22;9773;47.062;15.446;2023-07-22T06:28:13;18.40;99.90
19279;DHT22;9773;47.062;15.446;2023-07-22T06:30:38;18.30;99.90
19279;DHT22;9773;47.062;15.446;2023-07-22T06:33:04;18.40;99.90
19279;DHT22;9773;47.062;15.446;2023-07-22T06:35:30;18.50;99.90
19279;DHT22;9773;47.062;15.446;2023-07-22T06:37:56;18.50;99.90
19279;DHT22;9773;47.062;15.446;2023-07-22T06:40:21;18.60;99.90
19279;DHT22;9773;47.062;15.446;2023-07-22T06:42:47;18.50;99.90
19279;DHT22;9773;47.062;15.446;2023-07-22T06:45:13;18.70;99.90
19279;DHT22;9773;47.062;15.446;2023-07-22T06:47:39;18.70;99.90
19279;DHT22;9773;47.062;15.446;2023-07-22T06:50:05;18.80;99.90
19279;DHT22;9773;47.062;15.446;2023-07-22T06:52:33;18.80;99.90
19279;DHT22;9773;47.062;15.446;2023-07-22T06:54:59;18.90;99.90
19279;DHT22;9773;47.062;15.446;2023-07-22T06:57:25;19.10;99.90
19279;DHT22;9773;47.062;15.446;2023-07-22T06:59:54;19.20;99.90
19279;DHT22;9773;47.062;15.446;2023-07-22T07:02:20;19.30;99.90
19279;DHT22;9773;47.062;15.446;2023-07-22T07:04:47;19.30;99.90
19279;DHT22;9773;47.062;15.446;2023-07-22T07:07:13;19.40;99.90
19279;DHT22;9773;47.062;15.446;2023-07-22T07:09:39;19.50;99.90
19279;DHT22;9773;47.062;15.446;2023-07-22T07:12:06;19.50;99.90
19279;DHT22;9773;47.062;15.446;2023-07-22T07:14:35;19.70;99.90
19279;DHT22;9773;47.062;15.446;2023-07-22T07:17:02;19.80;99.90
19279;DHT22;9773;47.062;15.446;2023-07-22T07:19:28;19.90;99.90
19279;DHT22;9773;47.062;15.446;2023-07-22T07:21:54;20.00;99.90
19279;DHT22;9773;47.062;15.446;2023-07-22T07:24:19;20.20;99.90
19279;DHT22;9773;47.062;15.446;2023-07-22T07:26:45;20.30;99.90
19279;DHT22;9773;47.062;15.446;2023-07-22T07:29:11;20.40;99.90
19279;DHT22;9773;47.062;15.446;2023-07-22T07:31:38;20.60;99.90
19279;DHT22;9773;47.062;15.446;2023-07-22T07:34:04;20.70;99.90
19279;DHT22;9773;47.062;15.446;2023-07-22T07:36:31;20.70;99.90
19279;DHT22;9773;47.062;15.446;2023-07-22T07:38:57;21.00;99.90
19279;DHT22;9773;47.062;15.446;2023-07-22T07:41:23;21.00;99.90
19279;DHT22;9773;47.062;15.446;2023-07-22T07:43:50;20.90;99.90
19279;DHT22;9773;47.062;15.446;2023-07-22T07:46:20;20.90;99.90
19279;DHT22;9773;47.062;15.446;2023-07-22T07:48:49;21.00;99.90
19279;DHT22;9773;47.062;15.446;2023-07-22T07:51:16;21.00;99.90
19279;DHT22;9773;47.062;15.446;2023-07-22T07:53:42;20.90;99.90
19279;DHT22;9773;47.062;15.446;2023-07-22T07:56:09;20.90;99.90
19279;DHT22;9773;47.062;15.446;2023-07-22T07:58:36;21.00;99.90
19279;DHT22;9773;47.062;15.446;2023-07-22T08:01:01;21.00;99.90
19279;DHT22;9773;47.062;15.446;2023-07-22T08:03:27;20.90;99.90
19279;DHT22;9773;47.062;15.446;2023-07-22T08:05:53;20.90;99.90
19279;DHT22;9773;47.062;15.446;2023-07-22T08:08:21;21.00;99.90
19279;DHT22;9773;47.062;15.446;2023-07-22T08:10:46;21.10;99.90
19279;DHT22;9773;47.062;15.446;2023-07-22T08:13:13;21.10;99.90
19279;DHT22;9773;47.062;15.446;2023-07-22T08:15:40;21.10;99.90
19279;DHT22;9773;47.062;15.446;2023-07-22T08:18:07;21.20;99.90
19279;DHT22;9773;47.062;15.446;2023-07-22T08:20:33;21.40;99.90
19279;DHT22;9773;47.062;15.446;2023-07-22T08:22:58;21.60;99.90
19279;DHT22;9773;47.062;15.446;2023-07-22T08:25:24;21.80;99.90
19279;DHT22;9773;47.062;15.446;2023-07-22T08:27:50;21.90;99.90
19279;DHT22;9773;47.062;15.446;2023-07-22T08:30:16;22.00;99.90
19279;DHT22;9773;47.062;15.446;2023-07-22T08:32:41;22.10;99.90
19279;DHT22;9773;47.062;15.446;2023-07-22T08:35:07;22.10;99.90
19279;DHT22;9773;47.062;15.446;2023-07-22T08:37:34;22.50;99.90
19279;DHT22;9773;47.062;15.446;2023-07-22T08:40:00;22.80;99.90
19279;DHT22;9773;47.062;15.446;2023-07-22T08:42:28;23.10;99.90
19279;DHT22;9773;47.062;15.446;2023-07-22T08:44:57;23.50;99.90
19279;DHT22;9773;47.062;15.446;2023-07-22T08:47:29;23.60;99.90
19279;DHT22;9773;47.062;15.446;2023-07-22T08:49:58;23.80;99.90
19279;DHT22;9773;47.062;15.446;2023-07-22T08:52:24;23.70;99.90
19279;DHT22;9773;47.062;15.446;2023-07-22T08:54:50;23.70;99.90
19279;DHT22;9773;47.062;15.446;2023-07-22T08:57:17;23.70;99.90
19279;DHT22;9773;47.062;15.446;2023-07-22T08:59:45;23.70;99.90
19279;DHT22;9773;47.062;15.446;2023-07-22T09:02:13;23.90;99.90
19279;DHT22;9773;47.062;15.446;2023-07-22T09:04:39;24.00;99.90
19279;DHT22;9773;47.062;15.446;2023-07-22T09:07:08;24.10;99.90
19279;DHT22;9773;47.062;15.446;2023-07-22T09:09:34;24.00;99.90
19279;DHT22;9773;47.062;15.446;2023-07-22T09:12:01;24.20;99.90
19279;DHT22;9773;47.062;15.446;2023-07-22T09:14:28;24.50;99.90
19279;DHT22;9773;47.062;15.446;2023-07-22T09:16:57;24.60;99.90
19279;DHT22;9773;47.062;15.446;2023-07-22T09:19:22;24.70;99.90
19279;DHT22;9773;47.062;15.446;2023-07-22T09:21:48;24.80;99.90
19279;DHT22;9773;47.062;15.446;2023-07-22T09:24:22;24.90;99.90
19279;DHT22;9773;47.062;15.446;2023-07-22T09:26:48;25.00;99.90
19279;DHT22;9773;47.062;15.446;2023-07-22T09:29:14;25.20;99.90
19279;DHT22;9773;47.062;15.446;2023-07-22T09:31:50;25.20;99.90
19279;DHT22;9773;47.062;15.446;2023-07-22T09:34:16;25.20;99.90
19279;DHT22;9773;47.062;15.446;2023-07-22T09:36:56;25.20;99.90
19279;DHT22;9773;47.062;15.446;2023-07-22T09:39:23;25.00;99.90
19279;DHT22;9773;47.062;15.446;2023-07-22T09:41:50;24.90;99.90
19279;DHT22;9773;47.062;15.446;2023-07-22T09:44:16;24.90;99.90
19279;DHT22;9773;47.062;15.446;2023-07-22T09:46:42;25.10;99.90
19279;DHT22;9773;47.062;15.446;2023-07-22T09:49:12;24.90;99.90
19279;DHT22;9773;47.062;15.446;2023-07-22T09:51:39;24.70;99.90
19279;DHT22;9773;47.062;15.446;2023-07-22T09:54:06;24.80;99.90
19279;DHT22;9773;47.062;15.446;2023-07-22T09:56:42;24.80;99.90
19279;DHT22;9773;47.062;15.446;2023-07-22T09:59:09;24.60;99.90
19279;DHT22;9773;47.062;15.446;2023-07-22T10:01:38;24.40;99.90
19279;DHT22;9773;47.062;15.446;2023-07-22T10:04:05;24.30;99.90
19279;DHT22;9773;47.062;15.446;2023-07-22T10:06:32;24.50;99.90
19279;DHT22;9773;47.062;15.446;2023-07-22T10:09:04;24.60;99.90
19279;DHT22;9773;47.062;15.446;2023-07-22T10:11:34;24.50;99.90
19279;DHT22;9773;47.062;15.446;2023-07-22T10:14:02;24.80;99.90
19279;DHT22;9773;47.062;15.446;2023-07-22T10:16:28;25.00;99.90
19279;DHT22;9773;47.062;15.446;2023-07-22T10:18:55;24.80;99.90
19279;DHT22;9773;47.062;15.446;2023-07-22T10:21:22;24.90;99.90
19279;DHT22;9773;47.062;15.446;2023-07-22T10:23:50;25.10;99.90
19279;DHT22;9773;47.062;15.446;2023-07-22T10:26:17;25.30;99.90
19279;DHT22;9773;47.062;15.446;2023-07-22T10:28:44;25.30;99.90
19279;DHT22;9773;47.062;15.446;2023-07-22T10:31:11;25.30;99.90
19279;DHT22;9773;47.062;15.446;2023-07-22T10:33:38;25.60;99.90
19279;DHT22;9773;47.062;15.446;2023-07-22T10:36:06;25.70;99.90
19279;DHT22;9773;47.062;15.446;2023-07-22T10:38:32;25.70;99.90
19279;DHT22;9773;47.062;15.446;2023-07-22T10:40:59;25.80;98.30
19279;DHT22;9773;47.062;15.446;2023-07-22T10:43:27;25.90;98.00
19279;DHT22;9773;47.062;15.446;2023-07-22T10:46:04;25.70;98.70
19279;DHT22;9773;47.062;15.446;2023-07-22T10:48:35;25.90;99.10
19279;DHT22;9773;47.062;15.446;2023-07-22T10:51:09;25.80;99.50
19279;DHT22;9773;47.062;15.446;2023-07-22T10:53:47;25.90;98.10
19279;DHT22;9773;47.062;15.446;2023-07-22T10:56:23;26.00;98.50
19279;DHT22;9773;47.062;15.446;2023-07-22T11:01:32;26.10;97.10
19279;DHT22;9773;47.062;15.446;2023-07-22T11:06:51;26.10;96.80
19279;DHT22;9773;47.062;15.446;2023-07-22T11:12:03;26.30;97.40
19279;DHT22;9773;47.062;15.446;2023-07-22T11:14:35;26.40;98.10
19279;DHT22;9773;47.062;15.446;2023-07-22T11:17:04;26.50;98.40
19279;DHT22;9773;47.062;15.446;2023-07-22T11:19:31;26.30;96.80
19279;DHT22;9773;47.062;15.446;2023-07-22T11:21:59;26.30;97.40
19279;DHT22;9773;47.062;15.446;2023-07-22T11:24:25;26.20;97.00
19279;DHT22;9773;47.062;15.446;2023-07-22T11:26:53;26.30;98.10
19279;DHT22;9773;47.062;15.446;2023-07-22T11:29:20;26.40;97.90
19279;DHT22;9773;47.062;15.446;2023-07-22T11:31:52;26.60;98.20
19279;DHT22;9773;47.062;15.446;2023-07-22T11:34:21;26.70;98.10
19279;DHT22;9773;47.062;15.446;2023-07-22T11:36:50;26.70;97.30
19279;DHT22;9773;47.062;15.446;2023-07-22T11:39:20;26.70;96.60
19279;DHT22;9773;47.062;15.446;2023-07-22T11:41:47;26.70;96.40
19279;DHT22;9773;47.062;15.446;2023-07-22T11:44:15;26.50;95.90
19279;DHT22;9773;47.062;15.446;2023-07-22T11:46:51;26.30;97.20
19279;DHT22;9773;47.062;15.446;2023-07-22T11:49:36;26.30;96.90
19279;DHT22;9773;47.062;15.446;2023-07-22T11:52:04;26.30;97.30
19279;DHT22;9773;47.062;15.446;2023-07-22T11:54:33;26.20;99.70
19279;DHT22;9773;47.062;15.446;2023-07-22T11:57:16;26.10;99.20
19279;DHT22;9773;47.062;15.446;2023-07-22T11:59:54;26.30;97.70
19279;DHT22;9773;47.062;15.446;2023-07-22T12:02:23;26.60;98.00
19279;DHT22;9773;47.062;15.446;2023-07-22T12:04:53;26.70;98.50
19279;DHT22;9773;47.062;15.446;2023-07-22T12:07:27;26.80;96.00
19279;DHT22;9773;47.062;15.446;2023-07-22T12:09:55;26.70;95.20
19279;DHT22;9773;47.062;15.446;2023-07-22T12:12:34;26.60;96.10
19279;DHT22;9773;47.062;15.446;2023-07-22T12:17:44;26.80;94.90
19279;DHT22;9773;47.062;15.446;2023-07-22T12:20:10;26.60;95.90
19279;DHT22;9773;47.062;15.446;2023-07-22T12:22:36;26.70;97.40
19279;DHT22;9773;47.062;15.446;2023-07-22T12:25:02;26.70;97.30
19279;DHT22;9773;47.062;15.446;2023-07-22T12:27:29;26.80;97.60
19279;DHT22;9773;47.062;15.446;2023-07-22T12:29:55;26.70;95.70
19279;DHT22;9773;47.062;15.446;2023-07-22T12:32:20;26.50;96.80
19279;DHT22;9773;47.062;15.446;2023-07-22T12:34:46;26.50;97.00
19279;DHT22;9773;47.062;15.446;2023-07-22T12:37:12;26.50;97.10
19279;DHT22;9773;47.062;15.446;2023-07-22T12:39:38;26.60;96.80
19279;DHT22;9773;47.062;15.446;2023-07-22T12:42:04;26.70;97.20
19279;DHT22;9773;47.062;15.446;2023-07-22T12:44:30;26.80;96.60
19279;DHT22;9773;47.062;15.446;2023-07-22T12:46:55;26.90;97.70
19279;DHT22;9773;47.062;15.446;2023-07-22T12:49:21;26.80;97.90
19279;DHT22;9773;47.062;15.446;2023-07-22T12:51:47;26.80;98.10
19279;DHT22;9773;47.062;15.446;2023-07-22T12:54:13;26.60;97.40
19279;DHT22;9773;47.062;15.446;2023-07-22T12:56:38;26.70;98.20
19279;DHT22;9773;47.062;15.446;2023-07-22T12:59:04;26.80;96.70
19279;DHT22;9773;47.062;15.446;2023-07-22T13:01:30;26.90;96.70
19279;DHT22;9773;47.062;15.446;2023-07-22T13:03:56;26.70;96.90
19279;DHT22;9773;47.062;15.446;2023-07-22T13:06:22;26.50;97.40
19279;DHT22;9773;47.062;15.446;2023-07-22T13:08:48;26.60;97.90
19279;DHT22;9773;47.062;15.446;2023-07-22T13:11:13;26.70;98.00
19279;DHT22;9773;47.062;15.446;2023-07-22T13:13:39;26.60;99.00
19279;DHT22;9773;47.062;15.446;2023-07-22T13:16:05;26.60;98.40
19279;DHT22;9773;47.062;15.446;2023-07-22T13:18:31;26.60;98.10
19279;DHT22;9773;47.062;15.446;2023-07-22T13:20:56;26.50;99.00
19279;DHT22;9773;47.062;15.446;2023-07-22T13:23:22;26.40;98.70
19279;DHT22;9773;47.062;15.446;2023-07-22T13:25:48;26.10;98.80
19279;DHT22;9773;47.062;15.446;2023-07-22T13:28:14;26.00;99.00
19279;DHT22;9773;47.062;15.446;2023-07-22T13:30:39;25.80;99.30
19279;DHT22;9773;47.062;15.446;2023-07-22T13:33:05;25.60;99.60
19279;DHT22;9773;47.062;15.446;2023-07-22T13:35:31;25.60;99.90
19279;DHT22;9773;47.062;15.446;2023-07-22T13:37:57;25.40;99.90
19279;DHT22;9773;47.062;15.446;2023-07-22T13:40:22;25.40;99.90
19279;DHT22;9773;47.062;15.446;2023-07-22T13:42:48;25.20;99.90
19279;DHT22;9773;47.062;15.446;2023-07-22T13:45:14;25.20;99.90
19279;DHT22;9773;47.062;15.446;2023-07-22T13:47:40;25.00;99.90
19279;DHT22;9773;47.062;15.446;2023-07-22T13:50:06;24.90;99.90
19279;DHT22;9773;47.062;15.446;2023-07-22T13:52:32;24.70;99.90
19279;DHT22;9773;47.062;15.446;2023-07-22T13:54:58;24.60;99.90
19279;DHT22;9773;47.062;15.446;2023-07-22T13:57:23;24.50;99.90
19279;DHT22;9773;47.062;15.446;2023-07-22T13:59:49;24.50;99.90
19279;DHT22;9773;47.062;15.446;2023-07-22T14:02:15;24.50;99.90
19279;DHT22;9773;47.062;15.446;2023-07-22T14:04:41;24.50;99.90
19279;DHT22;9773;47.062;15.446;2023-07-22T14:07:06;24.50;99.90
19279;DHT22;9773;47.062;15.446;2023-07-22T14:09:32;24.40;99.90
19279;DHT22;9773;47.062;15.446;2023-07-22T14:11:58;24.30;99.90
19279;DHT22;9773;47.062;15.446;2023-07-22T14:14:25;24.30;99.90
19279;DHT22;9773;47.062;15.446;2023-07-22T14:16:58;24.30;99.90
19279;DHT22;9773;47.062;15.446;2023-07-22T14:19:25;24.20;99.90
19279;DHT22;9773;47.062;15.446;2023-07-22T14:21:51;24.20;99.90
19279;DHT22;9773;47.062;15.446;2023-07-22T14:24:18;24.20;99.90
19279;DHT22;9773;47.062;15.446;2023-07-22T14:26:43;24.00;99.90
19279;DHT22;9773;47.062;15.446;2023-07-22T14:29:09;23.70;99.90
19279;DHT22;9773;47.062;15.446;2023-07-22T14:31:35;23.50;99.90
19279;DHT22;9773;47.062;15.446;2023-07-22T14:34:03;23.40;99.90
19279;DHT22;9773;47.062;15.446;2023-07-22T14:36:29;23.30;99.90
19279;DHT22;9773;47.062;15.446;2023-07-22T14:38:57;23.20;99.90
19279;DHT22;9773;47.062;15.446;2023-07-22T14:41:23;23.10;99.90
19279;DHT22;9773;47.062;15.446;2023-07-22T14:43:49;22.90;99.90
19279;DHT22;9773;47.062;15.446;2023-07-22T14:46:17;22.70;99.90
19279;DHT22;9773;47.062;15.446;2023-07-22T14:48:44;22.50;99.90
19279;DHT22;9773;47.062;15.446;2023-07-22T14:51:11;22.50;99.90
19279;DHT22;9773;47.062;15.446;2023-07-22T14:53:36;22.50;99.90
19279;DHT22;9773;47.062;15.446;2023-07-22T14:56:03;22.50;99.90
19279;DHT22;9773;47.062;15.446;2023-07-22T14:58:29;22.50;99.90
19279;DHT22;9773;47.062;15.446;2023-07-22T15:00:56;22.50;99.90
19279;DHT22;9773;47.062;15.446;2023-07-22T15:03:22;22.40;99.90
19279;DHT22;9773;47.062;15.446;2023-07-22T15:05:47;22.30;99.90
19279;DHT22;9773;47.062;15.446;2023-07-22T15:08:13;22.30;99.90
19279;DHT22;9773;47.062;15.446;2023-07-22T15:10:39;22.40;99.90
19279;DHT22;9773;47.062;15.446;2023-07-22T15:13:06;22.30;99.90
19279;DHT22;9773;47.062;15.446;2023-07-22T15:15:34;22.30;99.90
19279;DHT22;9773;47.062;15.446;2023-07-22T15:18:04;22.20;99.90
19279;DHT22;9773;47.062;15.446;2023-07-22T15:20:31;22.10;99.90
19279;DHT22;9773;47.062;15.446;2023-07-22T15:22:56;21.80;99.90
19279;DHT22;9773;47.062;15.446;2023-07-22T15:25:22;21.50;99.90
19279;DHT22;9773;47.062;15.446;2023-07-22T15:27:48;21.00;99.90
19279;DHT22;9773;47.062;15.446;2023-07-22T15:30:14;20.70;99.90
19279;DHT22;9773;47.062;15.446;2023-07-22T15:32:39;20.40;99.90
19279;DHT22;9773;47.062;15.446;2023-07-22T15:35:05;20.20;99.90
19279;DHT22;9773;47.062;15.446;2023-07-22T15:37:31;20.20;99.90
19279;DHT22;9773;47.062;15.446;2023-07-22T15:39:57;20.10;99.90
19279;DHT22;9773;47.062;15.446;2023-07-22T15:42:23;20.10;99.90